sensor_id;sensor_type;location;lat;lon;timestamp;temperature;humidity
506;DHT22;551;48.524;9.056;2023-05-10T00:01:46;15.80;1.00
506;DHT22;551;48.524;9.056;2023-05-10T00:04:11;15.80;1.00
506;DHT22;551;48.524;9.056;2023-05-10T00:06:37;15.80;1.00
506;DHT22;551;48.524;9.056;2023-05-10T00:09:02;15.70;1.00
506;DHT22;551;48.524;9.056;2023-05-10T00:11:28;15.70;1.00
506;DHT22;551;48.524;9.056;2023-05-10T00:13:54;15.70;1.00
506;DHT22;551;48.524;9.056;2023-05-10T00:16:19;15.70;1.00
506;DHT22;551;48.524;9.056;2023-05-10T00:18:45;15.70;1.00
506;DHT22;551;48.524;9.056;2023-05-10T00:21:10;15.70;1.00
506;DHT22;551;48.524;9.056;2023-05-10T00:23:36;15.70;1.00
506;DHT22;551;48.524;9.056;2023-05-10T00:26:01;15.70;1.00
506;DHT22;551;48.524;9.056;2023-05-10T00:28:27;15.60;1.00
506;DHT22;551;48.524;9.056;2023-05-10T00:30:53;15.60;1.00
506;DHT22;551;48.524;9.056;2023-05-10T00:33:20;15.60;1.00
506;DHT22;551;48.524;9.056;2023-05-10T00:35:46;15.60;1.00
506;DHT22;551;48.524;9.056;2023-05-10T00:38:12;15.60;1.00
506;DHT22;551;48.524;9.056;2023-05-10T00:40:37;15.60;1.00
506;DHT22;551;48.524;9.056;2023-05-10T00:43:03;15.60;1.00
506;DHT22;551;48.524;9.056;2023-05-10T00:45:30;15.50;1.00
506;DHT22;551;48.524;9.056;2023-05-10T00:47:56;15.60;1.00
506;DHT22;551;48.524;9.056;2023-05-10T00:50:22;15.50;1.00
506;DHT22;551;48.524;9.056;2023-05-10T00:52:49;15.50;1.00
506;DHT22;551;48.524;9.056;2023-05-10T00:55:14;15.50;1.00
506;DHT22;551;48.524;9.056;2023-05-10T00:57:40;15.50;1.00
506;DHT22;551;48.524;9.056;2023-05-10T01:00:07;15.50;1.00
506;DHT22;551;48.524;9.056;2023-05-10T01:02:34;15.50;1.00
506;DHT22;551;48.524;9.056;2023-05-10T01:05:00;15.40;1.00
506;DHT22;551;48.524;9.056;2023-05-10T01:07:26;15.40;1.00
506;DHT22;551;48.524;9.056;2023-05-10T01:09:52;15.40;1.00
506;DHT22;551;48.524;9.056;2023-05-10T01:12:17;15.30;1.00
506;DHT22;551;48.524;9.056;2023-05-10T01:14:43;15.30;1.00
506;DHT22;551;48.524;9.056;2023-05-10T01:17:10;15.30;1.00
506;DHT22;551;48.524;9.056;2023-05-10T01:19:37;15.40;1.00
506;DHT22;551;48.524;9.056;2023-05-10T01:22:13;15.30;1.00
506;DHT22;551;48.524;9.056;2023-05-10T01:25:04;15.30;1.00
506;DHT22;551;48.524;9.056;2023-05-10T01:30:42;15.30;1.00
506;DHT22;551;48.524;9.056;2023-05-10T01:39:44;15.20;1.00
506;DHT22;551;48.524;9.056;2023-05-10T01:41:57;15.20;1.00
506;DHT22;551;48.524;9.056;2023-05-10T01:44:42;15.20;1.00
506;DHT22;551;48.524;9.056;2023-05-10T01:47:16;15.20;1.00
506;DHT22;551;48.524;9.056;2023-05-10T01:49:50;15.20;1.00
506;DHT22;551;48.524;9.056;2023-05-10T01:52:18;15.20;1.00
506;DHT22;551;48.524;9.056;2023-05-10T01:54:50;15.20;1.00
506;DHT22;551;48.524;9.056;2023-05-10T01:57:19;15.10;1.00
506;DHT22;551;48.524;9.056;2023-05-10T01:59:49;15.10;1.00
506;DHT22;551;48.524;9.056;2023-05-10T02:02:17;15.10;1.00
506;DHT22;551;48.524;9.056;2023-05-10T02:04:45;15.00;1.00
506;DHT22;551;48.524;9.056;2023-05-10T02:07:12;15.00;1.00
506;DHT22;551;48.524;9.056;2023-05-10T02:09:38;15.00;1.00
506;DHT22;551;48.524;9.056;2023-05-10T02:12:05;14.90;1.00
506;DHT22;551;48.524;9.056;2023-05-10T02:14:34;14.90;1.00
506;DHT22;551;48.524;9.056;2023-05-10T02:17:02;14.90;1.00
506;DHT22;551;48.524;9.056;2023-05-10T02:19:31;14.90;1.00
506;DHT22;551;48.524;9.056;2023-05-10T02:21:59;14.90;1.00
506;DHT22;551;48.524;9.056;2023-05-10T02:24:25;14.90;1.00
506;DHT22;551;48.524;9.056;2023-05-10T02:26:53;14.80;1.00
506;DHT22;551;48.524;9.056;2023-05-10T02:29:22;14.80;1.00
506;DHT22;551;48.524;9.056;2023-05-10T02:31:50;14.70;1.00
506;DHT22;551;48.524;9.056;2023-05-10T02:34:16;14.70;1.00
506;DHT22;551;48.524;9.056;2023-05-10T02:36:43;14.70;1.00
506;DHT22;551;48.524;9.056;2023-05-10T02:39:09;14.70;1.00
506;DHT22;551;48.524;9.056;2023-05-10T02:41:40;14.70;1.00
506;DHT22;551;48.524;9.056;2023-05-10T02:44:07;14.60;1.00
506;DHT22;551;48.524;9.056;2023-05-10T02:46:34;14.60;1.00
506;DHT22;551;48.524;9.056;2023-05-10T02:49:00;14.50;1.00
506;DHT22;551;48.524;9.056;2023-05-10T02:51:30;14.60;1.00
506;DHT22;551;48.524;9.056;2023-05-10T02:53:57;14.60;1.00
506;DHT22;551;48.524;9.056;2023-05-10T02:56:37;14.50;1.00
506;DHT22;551;48.524;9.056;2023-05-10T02:59:05;14.50;1.00
506;DHT22;551;48.524;9.056;2023-05-10T03:01:31;14.60;1.00
506;DHT22;551;48.524;9.056;2023-05-10T03:03:56;14.60;1.00
506;DHT22;551;48.524;9.056;2023-05-10T03:06:22;14.60;1.00
506;DHT22;551;48.524;9.056;2023-05-10T03:08:48;14.50;1.00
506;DHT22;551;48.524;9.056;2023-05-10T03:16:57;14.60;1.00
506;DHT22;551;48.524;9.056;2023-05-10T03:19:58;14.60;1.00
506;DHT22;551;48.524;9.056;2023-05-10T03:22:29;14.50;1.00
506;DHT22;551;48.524;9.056;2023-05-10T03:24:56;14.50;1.00
506;DHT22;551;48.524;9.056;2023-05-10T03:27:24;14.50;1.00
506;DHT22;551;48.524;9.056;2023-05-10T03:29:51;14.50;1.00
506;DHT22;551;48.524;9.056;2023-05-10T03:32:17;14.50;1.00
506;DHT22;551;48.524;9.056;2023-05-10T03:34:43;14.50;1.00
506;DHT22;551;48.524;9.056;2023-05-10T03:37:09;14.50;1.00
506;DHT22;551;48.524;9.056;2023-05-10T03:39:36;14.50;1.00
506;DHT22;551;48.524;9.056;2023-05-10T03:42:02;14.50;1.00
506;DHT22;551;48.524;9.056;2023-05-10T03:44:27;14.60;1.00
506;DHT22;551;48.524;9.056;2023-05-10T03:46:53;14.50;1.00
506;DHT22;551;48.524;9.056;2023-05-10T03:49:18;14.50;1.00
506;DHT22;551;48.524;9.056;2023-05-10T03:51:44;14.50;1.00
506;DHT22;551;48.524;9.056;2023-05-10T03:54:09;14.40;1.00
506;DHT22;551;48.524;9.056;2023-05-10T03:56:35;14.40;1.00
506;DHT22;551;48.524;9.056;2023-05-10T03:59:01;14.50;1.00
506;DHT22;551;48.524;9.056;2023-05-10T04:01:26;14.50;1.00
506;DHT22;551;48.524;9.056;2023-05-10T04:03:52;14.60;1.00
506;DHT22;551;48.524;9.056;2023-05-10T04:06:17;14.60;1.00
506;DHT22;551;48.524;9.056;2023-05-10T04:08:43;14.50;1.00
506;DHT22;551;48.524;9.056;2023-05-10T04:11:10;14.50;1.00
506;DHT22;551;48.524;9.056;2023-05-10T04:13:37;14.50;1.00
506;DHT22;551;48.524;9.056;2023-05-10T04:16:03;14.50;1.00
506;DHT22;551;48.524;9.056;2023-05-10T04:18:29;14.50;1.00
506;DHT22;551;48.524;9.056;2023-05-10T04:20:55;14.50;1.00
506;DHT22;551;48.524;9.056;2023-05-10T04:23:20;14.50;1.00
506;DHT22;551;48.524;9.056;2023-05-10T04:25:46;14.50;1.00
506;DHT22;551;48.524;9.056;2023-05-10T04:28:11;14.60;1.00
506;DHT22;551;48.524;9.056;2023-05-10T04:30:37;14.50;1.00
506;DHT22;551;48.524;9.056;2023-05-10T04:33:02;14.50;1.00
506;DHT22;551;48.524;9.056;2023-05-10T04:35:28;14.50;1.00
506;DHT22;551;48.524;9.056;2023-05-10T04:37:54;14.50;1.00
506;DHT22;551;48.524;9.056;2023-05-10T04:40:20;14.60;1.00
506;DHT22;551;48.524;9.056;2023-05-10T04:42:46;14.60;1.00
506;DHT22;551;48.524;9.056;2023-05-10T04:45:12;14.70;1.00
506;DHT22;551;48.524;9.056;2023-05-10T04:47:37;14.70;1.00
506;DHT22;551;48.524;9.056;2023-05-10T04:50:04;14.80;1.00
506;DHT22;551;48.524;9.056;2023-05-10T04:52:29;14.80;1.00
506;DHT22;551;48.524;9.056;2023-05-10T04:54:55;14.80;1.00
506;DHT22;551;48.524;9.056;2023-05-10T04:57:20;14.80;1.00
506;DHT22;551;48.524;9.056;2023-05-10T04:59:46;14.80;1.00
506;DHT22;551;48.524;9.056;2023-05-10T05:02:12;14.80;1.00
506;DHT22;551;48.524;9.056;2023-05-10T05:04:37;14.80;1.00
506;DHT22;551;48.524;9.056;2023-05-10T05:07:03;14.80;1.00
506;DHT22;551;48.524;9.056;2023-05-10T05:09:28;14.80;1.00
506;DHT22;551;48.524;9.056;2023-05-10T05:11:54;14.90;1.00
506;DHT22;551;48.524;9.056;2023-05-10T05:14:19;14.90;1.00
506;DHT22;551;48.524;9.056;2023-05-10T05:16:46;15.00;1.00
506;DHT22;551;48.524;9.056;2023-05-10T05:19:11;15.00;1.00
506;DHT22;551;48.524;9.056;2023-05-10T05:21:37;15.10;1.00
506;DHT22;551;48.524;9.056;2023-05-10T05:24:03;15.10;1.00
506;DHT22;551;48.524;9.056;2023-05-10T05:26:29;15.10;1.00
506;DHT22;551;48.524;9.056;2023-05-10T05:28:54;15.20;1.00
506;DHT22;551;48.524;9.056;2023-05-10T05:31:20;15.30;1.00
506;DHT22;551;48.524;9.056;2023-05-10T05:33:46;15.30;1.00
506;DHT22;551;48.524;9.056;2023-05-10T05:36:11;15.30;1.00
506;DHT22;551;48.524;9.056;2023-05-10T05:38:37;15.30;1.00
506;DHT22;551;48.524;9.056;2023-05-10T05:41:02;15.20;1.00
506;DHT22;551;48.524;9.056;2023-05-10T05:43:28;15.20;1.00
506;DHT22;551;48.524;9.056;2023-05-10T05:45:54;15.30;1.00
506;DHT22;551;48.524;9.056;2023-05-10T05:48:20;15.20;1.00
506;DHT22;551;48.524;9.056;2023-05-10T05:50:45;15.10;1.00
506;DHT22;551;48.524;9.056;2023-05-10T05:53:11;15.10;1.00
506;DHT22;551;48.524;9.056;2023-05-10T05:55:36;15.10;1.00
506;DHT22;551;48.524;9.056;2023-05-10T05:58:02;15.10;1.00
506;DHT22;551;48.524;9.056;2023-05-10T06:00:28;15.20;1.00
506;DHT22;551;48.524;9.056;2023-05-10T06:02:54;15.20;1.00
506;DHT22;551;48.524;9.056;2023-05-10T06:05:19;15.30;1.00
506;DHT22;551;48.524;9.056;2023-05-10T06:07:46;15.40;1.00
506;DHT22;551;48.524;9.056;2023-05-10T06:10:11;15.40;1.00
506;DHT22;551;48.524;9.056;2023-05-10T06:12:37;15.50;1.00
506;DHT22;551;48.524;9.056;2023-05-10T06:15:03;15.60;1.00
506;DHT22;551;48.524;9.056;2023-05-10T06:17:28;15.70;1.00
506;DHT22;551;48.524;9.056;2023-05-10T06:19:55;15.90;1.00
506;DHT22;551;48.524;9.056;2023-05-10T06:22:20;15.90;1.00
506;DHT22;551;48.524;9.056;2023-05-10T06:24:48;16.00;1.00
506;DHT22;551;48.524;9.056;2023-05-10T06:27:13;16.00;1.00
506;DHT22;551;48.524;9.056;2023-05-10T06:29:39;16.10;1.00
506;DHT22;551;48.524;9.056;2023-05-10T06:32:05;16.20;1.00
506;DHT22;551;48.524;9.056;2023-05-10T06:34:30;16.20;1.00
506;DHT22;551;48.524;9.056;2023-05-10T06:36:56;16.20;1.00
506;DHT22;551;48.524;9.056;2023-05-10T06:39:22;16.30;1.00
506;DHT22;551;48.524;9.056;2023-05-10T06:41:47;16.40;1.00
506;DHT22;551;48.524;9.056;2023-05-10T06:44:13;16.50;1.00
506;DHT22;551;48.524;9.056;2023-05-10T06:46:39;16.50;1.00
506;DHT22;551;48.524;9.056;2023-05-10T06:49:04;16.60;1.00
506;DHT22;551;48.524;9.056;2023-05-10T06:51:30;16.60;1.00
506;DHT22;551;48.524;9.056;2023-05-10T06:53:55;16.80;1.00
506;DHT22;551;48.524;9.056;2023-05-10T06:56:21;16.80;1.00
506;DHT22;551;48.524;9.056;2023-05-10T06:58:47;16.90;1.00
506;DHT22;551;48.524;9.056;2023-05-10T07:01:13;16.90;1.00
506;DHT22;551;48.524;9.056;2023-05-10T07:03:39;16.80;1.00
506;DHT22;551;48.524;9.056;2023-05-10T07:06:04;16.70;1.00
506;DHT22;551;48.524;9.056;2023-05-10T07:08:34;16.70;1.00
506;DHT22;551;48.524;9.056;2023-05-10T07:11:04;16.60;1.00
506;DHT22;551;48.524;9.056;2023-05-10T07:13:31;16.60;1.00
506;DHT22;551;48.524;9.056;2023-05-10T07:15:57;16.60;1.00
506;DHT22;551;48.524;9.056;2023-05-10T07:18:23;16.50;1.00
506;DHT22;551;48.524;9.056;2023-05-10T07:20:49;16.50;1.00
506;DHT22;551;48.524;9.056;2023-05-10T07:23:14;16.50;1.00
506;DHT22;551;48.524;9.056;2023-05-10T07:25:40;16.50;1.00
506;DHT22;551;48.524;9.056;2023-05-10T07:28:05;16.50;1.00
506;DHT22;551;48.524;9.056;2023-05-10T07:30:31;16.50;1.00
506;DHT22;551;48.524;9.056;2023-05-10T07:32:57;16.60;1.00
506;DHT22;551;48.524;9.056;2023-05-10T07:35:22;16.50;1.00
506;DHT22;551;48.524;9.056;2023-05-10T07:37:47;16.60;1.00
506;DHT22;551;48.524;9.056;2023-05-10T07:40:13;16.70;1.00
506;DHT22;551;48.524;9.056;2023-05-10T07:42:38;16.70;1.00
506;DHT22;551;48.524;9.056;2023-05-10T07:45:04;16.60;1.00
506;DHT22;551;48.524;9.056;2023-05-10T07:47:30;16.60;1.00
506;DHT22;551;48.524;9.056;2023-05-10T07:49:55;16.80;1.00
506;DHT22;551;48.524;9.056;2023-05-10T07:52:21;16.80;1.00
506;DHT22;551;48.524;9.056;2023-05-10T07:54:46;16.90;1.00
506;DHT22;551;48.524;9.056;2023-05-10T08:04:33;17.30;1.00
506;DHT22;551;48.524;9.056;2023-05-10T08:06:58;17.20;1.00
506;DHT22;551;48.524;9.056;2023-05-10T08:38:39;20.20;1.00
506;DHT22;551;48.524;9.056;2023-05-10T08:46:00;21.20;1.00
506;DHT22;551;48.524;9.056;2023-05-10T08:48:29;21.10;1.00
506;DHT22;551;48.524;9.056;2023-05-10T08:50:58;20.70;1.00
506;DHT22;551;48.524;9.056;2023-05-10T08:53:27;21.40;1.00
506;DHT22;551;48.524;9.056;2023-05-10T08:55:54;20.60;1.00
506;DHT22;551;48.524;9.056;2023-05-10T08:58:20;20.30;1.00
506;DHT22;551;48.524;9.056;2023-05-10T09:00:47;20.10;1.00
506;DHT22;551;48.524;9.056;2023-05-10T09:03:13;19.60;1.00
506;DHT22;551;48.524;9.056;2023-05-10T09:05:39;19.30;1.00
506;DHT22;551;48.524;9.056;2023-05-10T09:08:06;19.20;1.00
506;DHT22;551;48.524;9.056;2023-05-10T09:10:33;19.10;1.00
506;DHT22;551;48.524;9.056;2023-05-10T09:12:59;19.30;1.00
506;DHT22;551;48.524;9.056;2023-05-10T09:15:24;19.60;1.00
506;DHT22;551;48.524;9.056;2023-05-10T09:17:50;20.00;1.00
506;DHT22;551;48.524;9.056;2023-05-10T09:20:15;20.00;1.00
506;DHT22;551;48.524;9.056;2023-05-10T09:22:42;19.90;1.00
506;DHT22;551;48.524;9.056;2023-05-10T09:25:09;19.70;1.00
506;DHT22;551;48.524;9.056;2023-05-10T09:27:36;19.60;1.00
506;DHT22;551;48.524;9.056;2023-05-10T09:30:03;19.80;1.00
506;DHT22;551;48.524;9.056;2023-05-10T09:32:42;20.20;1.00
506;DHT22;551;48.524;9.056;2023-05-10T09:35:15;20.30;1.00
506;DHT22;551;48.524;9.056;2023-05-10T09:37:45;20.90;1.00
506;DHT22;551;48.524;9.056;2023-05-10T09:40:21;21.40;1.00
506;DHT22;551;48.524;9.056;2023-05-10T09:42:55;22.30;1.00
506;DHT22;551;48.524;9.056;2023-05-10T09:45:22;22.80;1.00
506;DHT22;551;48.524;9.056;2023-05-10T09:47:48;23.00;1.00
506;DHT22;551;48.524;9.056;2023-05-10T09:50:14;23.20;1.00
506;DHT22;551;48.524;9.056;2023-05-10T09:53:05;23.40;1.00
506;DHT22;551;48.524;9.056;2023-05-10T09:55:42;23.30;1.00
506;DHT22;551;48.524;9.056;2023-05-10T09:58:12;23.10;1.00
506;DHT22;551;48.524;9.056;2023-05-10T10:00:43;22.80;1.00
506;DHT22;551;48.524;9.056;2023-05-10T10:03:16;22.50;1.00
506;DHT22;551;48.524;9.056;2023-05-10T10:05:43;22.10;1.00
506;DHT22;551;48.524;9.056;2023-05-10T10:08:09;21.20;1.00
506;DHT22;551;48.524;9.056;2023-05-10T10:10:35;20.70;1.00
506;DHT22;551;48.524;9.056;2023-05-10T10:13:01;20.30;1.00
506;DHT22;551;48.524;9.056;2023-05-10T10:15:27;19.80;1.00
506;DHT22;551;48.524;9.056;2023-05-10T10:17:53;19.50;1.00
506;DHT22;551;48.524;9.056;2023-05-10T10:20:21;19.30;1.00
506;DHT22;551;48.524;9.056;2023-05-10T10:22:48;19.30;1.00
506;DHT22;551;48.524;9.056;2023-05-10T10:25:15;19.50;1.00
506;DHT22;551;48.524;9.056;2023-05-10T10:33:10;21.40;1.00
506;DHT22;551;48.524;9.056;2023-05-10T10:35:39;21.80;1.00
506;DHT22;551;48.524;9.056;2023-05-10T10:38:08;22.40;1.00
506;DHT22;551;48.524;9.056;2023-05-10T10:40:34;22.80;1.00
506;DHT22;551;48.524;9.056;2023-05-10T10:43:23;22.90;1.00
506;DHT22;551;48.524;9.056;2023-05-10T10:46:09;23.30;1.00
506;DHT22;551;48.524;9.056;2023-05-10T10:48:35;23.20;1.00
506;DHT22;551;48.524;9.056;2023-05-10T10:51:01;23.10;1.00
506;DHT22;551;48.524;9.056;2023-05-10T10:53:30;23.60;1.00
506;DHT22;551;48.524;9.056;2023-05-10T10:56:11;23.90;1.00
506;DHT22;551;48.524;9.056;2023-05-10T10:58:38;22.90;1.00
506;DHT22;551;48.524;9.056;2023-05-10T11:03:38;22.10;1.00
506;DHT22;551;48.524;9.056;2023-05-10T11:06:04;21.00;1.00
506;DHT22;551;48.524;9.056;2023-05-10T11:08:31;20.20;1.00
506;DHT22;551;48.524;9.056;2023-05-10T11:13:39;19.30;1.00
506;DHT22;551;48.524;9.056;2023-05-10T11:16:21;19.40;1.00
506;DHT22;551;48.524;9.056;2023-05-10T11:19:03;19.40;1.00
506;DHT22;551;48.524;9.056;2023-05-10T11:21:30;18.70;1.00
506;DHT22;551;48.524;9.056;2023-05-10T11:23:57;19.20;1.00
506;DHT22;551;48.524;9.056;2023-05-10T11:26:24;19.00;1.00
506;DHT22;551;48.524;9.056;2023-05-10T11:28:52;18.90;1.00
506;DHT22;551;48.524;9.056;2023-05-10T11:31:19;19.00;1.00
506;DHT22;551;48.524;9.056;2023-05-10T11:33:52;18.20;1.00
506;DHT22;551;48.524;9.056;2023-05-10T11:36:31;18.30;1.00
506;DHT22;551;48.524;9.056;2023-05-10T11:38:57;17.90;1.00
506;DHT22;551;48.524;9.056;2023-05-10T11:41:24;18.20;1.00
506;DHT22;551;48.524;9.056;2023-05-10T11:43:51;18.10;1.00
506;DHT22;551;48.524;9.056;2023-05-10T11:46:19;18.10;1.00
506;DHT22;551;48.524;9.056;2023-05-10T11:48:47;18.30;1.00
506;DHT22;551;48.524;9.056;2023-05-10T11:51:14;18.20;1.00
506;DHT22;551;48.524;9.056;2023-05-10T11:53:39;18.30;1.00
506;DHT22;551;48.524;9.056;2023-05-10T11:56:07;18.20;1.00
506;DHT22;551;48.524;9.056;2023-05-10T11:58:33;18.10;1.00
506;DHT22;551;48.524;9.056;2023-05-10T12:00:59;18.20;1.00
506;DHT22;551;48.524;9.056;2023-05-10T12:03:26;18.50;1.00
506;DHT22;551;48.524;9.056;2023-05-10T12:05:52;19.00;1.00
506;DHT22;551;48.524;9.056;2023-05-10T12:08:21;19.40;1.00
506;DHT22;551;48.524;9.056;2023-05-10T12:13:14;20.10;1.00
506;DHT22;551;48.524;9.056;2023-05-10T12:18:11;20.50;1.00
506;DHT22;551;48.524;9.056;2023-05-10T12:20:37;20.50;1.00
506;DHT22;551;48.524;9.056;2023-05-10T12:25:32;20.30;1.00
506;DHT22;551;48.524;9.056;2023-05-10T12:27:59;20.20;1.00
506;DHT22;551;48.524;9.056;2023-05-10T12:30:27;20.20;1.00
506;DHT22;551;48.524;9.056;2023-05-10T12:32:58;20.20;1.00
506;DHT22;551;48.524;9.056;2023-05-10T12:35:24;20.10;1.00
506;DHT22;551;48.524;9.056;2023-05-10T12:37:51;20.10;1.00
506;DHT22;551;48.524;9.056;2023-05-10T12:40:16;20.00;1.00
506;DHT22;551;48.524;9.056;2023-05-10T12:42:42;20.00;1.00
506;DHT22;551;48.524;9.056;2023-05-10T12:45:10;19.90;1.00
506;DHT22;551;48.524;9.056;2023-05-10T12:47:36;19.70;1.00
506;DHT22;551;48.524;9.056;2023-05-10T12:50:02;19.90;1.00
506;DHT22;551;48.524;9.056;2023-05-10T12:52:28;20.20;1.00
506;DHT22;551;48.524;9.056;2023-05-10T12:54:54;20.30;1.00
506;DHT22;551;48.524;9.056;2023-05-10T12:57:22;20.50;1.00
506;DHT22;551;48.524;9.056;2023-05-10T12:59:48;20.40;1.00
506;DHT22;551;48.524;9.056;2023-05-10T13:02:14;20.50;1.00
506;DHT22;551;48.524;9.056;2023-05-10T13:04:40;20.70;1.00
506;DHT22;551;48.524;9.056;2023-05-10T13:07:07;20.80;1.00
506;DHT22;551;48.524;9.056;2023-05-10T13:09:32;20.80;1.00
506;DHT22;551;48.524;9.056;2023-05-10T13:11:58;20.90;1.00
506;DHT22;551;48.524;9.056;2023-05-10T13:14:25;20.90;1.00
506;DHT22;551;48.524;9.056;2023-05-10T13:16:50;21.00;1.00
506;DHT22;551;48.524;9.056;2023-05-10T13:19:16;20.90;1.00
506;DHT22;551;48.524;9.056;2023-05-10T13:21:42;20.70;1.00
506;DHT22;551;48.524;9.056;2023-05-10T13:24:10;20.90;1.00
506;DHT22;551;48.524;9.056;2023-05-10T13:38:46;20.60;1.00
506;DHT22;551;48.524;9.056;2023-05-10T13:41:12;20.80;1.00
506;DHT22;551;48.524;9.056;2023-05-10T13:43:37;20.40;1.00
506;DHT22;551;48.524;9.056;2023-05-10T13:48:29;20.60;1.00
506;DHT22;551;48.524;9.056;2023-05-10T13:50:54;21.00;1.00
506;DHT22;551;48.524;9.056;2023-05-10T14:05:31;21.00;1.00
506;DHT22;551;48.524;9.056;2023-05-10T14:12:49;21.10;1.00
506;DHT22;551;48.524;9.056;2023-05-10T14:20:07;21.10;1.00
506;DHT22;551;48.524;9.056;2023-05-10T14:22:33;21.20;1.00
506;DHT22;551;48.524;9.056;2023-05-10T14:24:59;21.30;1.00
506;DHT22;551;48.524;9.056;2023-05-10T14:27:25;21.20;1.00
506;DHT22;551;48.524;9.056;2023-05-10T14:29:50;21.20;1.00
506;DHT22;551;48.524;9.056;2023-05-10T14:32:16;21.10;1.00
506;DHT22;551;48.524;9.056;2023-05-10T14:34:41;20.90;1.00
506;DHT22;551;48.524;9.056;2023-05-10T14:37:09;20.70;1.00
506;DHT22;551;48.524;9.056;2023-05-10T14:39:35;20.70;1.00
506;DHT22;551;48.524;9.056;2023-05-10T14:42:00;20.70;1.00
506;DHT22;551;48.524;9.056;2023-05-10T14:44:27;20.80;1.00
506;DHT22;551;48.524;9.056;2023-05-10T14:46:53;20.50;1.00
506;DHT22;551;48.524;9.056;2023-05-10T14:49:19;20.60;1.00
506;DHT22;551;48.524;9.056;2023-05-10T14:51:44;20.60;1.00
506;DHT22;551;48.524;9.056;2023-05-10T14:54:10;20.40;1.00
506;DHT22;551;48.524;9.056;2023-05-10T14:56:36;20.50;1.00
506;DHT22;551;48.524;9.056;2023-05-10T14:59:03;20.40;1.00
506;DHT22;551;48.524;9.056;2023-05-10T15:01:29;20.40;1.00
506;DHT22;551;48.524;9.056;2023-05-10T15:03:54;20.40;1.00
506;DHT22;551;48.524;9.056;2023-05-10T15:06:24;20.30;1.00
506;DHT22;551;48.524;9.056;2023-05-10T15:08:55;20.20;1.00
506;DHT22;551;48.524;9.056;2023-05-10T15:11:21;20.20;1.00
506;DHT22;551;48.524;9.056;2023-05-10T15:13:46;20.50;1.00
506;DHT22;551;48.524;9.056;2023-05-10T15:16:12;20.50;1.00
506;DHT22;551;48.524;9.056;2023-05-10T15:18:37;20.50;1.00
506;DHT22;551;48.524;9.056;2023-05-10T15:33:14;20.40;1.00
506;DHT22;551;48.524;9.056;2023-05-10T15:35:39;20.30;1.00
506;DHT22;551;48.524;9.056;2023-05-10T15:40:32;20.30;1.00
506;DHT22;551;48.524;9.056;2023-05-10T15:42:57;19.70;1.00
506;DHT22;551;48.524;9.056;2023-05-10T15:45:23;19.90;1.00
506;DHT22;551;48.524;9.056;2023-05-10T15:47:48;19.70;1.00
506;DHT22;551;48.524;9.056;2023-05-10T15:50:15;20.40;1.00
506;DHT22;551;48.524;9.056;2023-05-10T15:55:08;20.00;1.00
506;DHT22;551;48.524;9.056;2023-05-10T15:57:40;20.10;1.00
506;DHT22;551;48.524;9.056;2023-05-10T16:00:09;19.80;1.00
506;DHT22;551;48.524;9.056;2023-05-10T16:07:27;19.60;1.00
506;DHT22;551;48.524;9.056;2023-05-10T16:09:53;19.40;1.00
506;DHT22;551;48.524;9.056;2023-05-10T16:12:19;19.10;1.00
506;DHT22;551;48.524;9.056;2023-05-10T16:14:45;18.90;1.00
506;DHT22;551;48.524;9.056;2023-05-10T16:17:10;19.10;1.00
506;DHT22;551;48.524;9.056;2023-05-10T16:19:36;19.00;1.00
506;DHT22;551;48.524;9.056;2023-05-10T16:22:01;18.80;1.00
506;DHT22;551;48.524;9.056;2023-05-10T16:24:27;18.60;1.00
506;DHT22;551;48.524;9.056;2023-05-10T16:26:53;18.50;1.00
506;DHT22;551;48.524;9.056;2023-05-10T16:29:18;18.40;1.00
506;DHT22;551;48.524;9.056;2023-05-10T16:31:44;18.10;1.00
506;DHT22;551;48.524;9.056;2023-05-10T16:34:09;18.00;1.00
506;DHT22;551;48.524;9.056;2023-05-10T16:36:35;18.00;1.00
506;DHT22;551;48.524;9.056;2023-05-10T16:39:00;18.00;1.00
506;DHT22;551;48.524;9.056;2023-05-10T16:41:26;18.00;1.00
506;DHT22;551;48.524;9.056;2023-05-10T16:43:51;18.00;1.00
506;DHT22;551;48.524;9.056;2023-05-10T16:46:17;17.90;1.00
506;DHT22;551;48.524;9.056;2023-05-10T16:48:42;17.90;1.00
506;DHT22;551;48.524;9.056;2023-05-10T16:51:08;17.90;1.00
506;DHT22;551;48.524;9.056;2023-05-10T16:53:34;17.90;1.00
506;DHT22;551;48.524;9.056;2023-05-10T16:56:00;17.80;1.00
506;DHT22;551;48.524;9.056;2023-05-10T16:58:26;17.70;1.00
506;DHT22;551;48.524;9.056;2023-05-10T17:00:51;17.70;1.00
506;DHT22;551;48.524;9.056;2023-05-10T17:03:17;17.60;1.00
506;DHT22;551;48.524;9.056;2023-05-10T17:05:42;17.50;1.00
506;DHT22;551;48.524;9.056;2023-05-10T17:08:08;17.40;1.00
506;DHT22;551;48.524;9.056;2023-05-10T17:10:35;17.30;1.00
506;DHT22;551;48.524;9.056;2023-05-10T17:13:00;17.20;1.00
506;DHT22;551;48.524;9.056;2023-05-10T17:15:26;17.20;1.00
506;DHT22;551;48.524;9.056;2023-05-10T17:17:51;17.20;1.00
506;DHT22;551;48.524;9.056;2023-05-10T17:20:17;17.10;1.00
506;DHT22;551;48.524;9.056;2023-05-10T17:22:42;16.90;1.00
506;DHT22;551;48.524;9.056;2023-05-10T17:25:08;16.90;1.00
506;DHT22;551;48.524;9.056;2023-05-10T17:27:34;16.70;1.00
506;DHT22;551;48.524;9.056;2023-05-10T17:29:59;16.70;1.00
506;DHT22;551;48.524;9.056;2023-05-10T17:32:25;16.60;1.00
506;DHT22;551;48.524;9.056;2023-05-10T17:34:50;16.60;1.00
506;DHT22;551;48.524;9.056;2023-05-10T17:37:16;16.50;1.00
506;DHT22;551;48.524;9.056;2023-05-10T17:39:42;16.50;1.00
506;DHT22;551;48.524;9.056;2023-05-10T17:42:07;16.50;1.00
506;DHT22;551;48.524;9.056;2023-05-10T17:44:33;16.40;1.00
506;DHT22;551;48.524;9.056;2023-05-10T17:46:58;16.30;1.00
506;DHT22;551;48.524;9.056;2023-05-10T17:49:24;16.40;1.00
506;DHT22;551;48.524;9.056;2023-05-10T17:51:50;16.30;1.00
506;DHT22;551;48.524;9.056;2023-05-10T17:54:15;16.30;1.00
506;DHT22;551;48.524;9.056;2023-05-10T17:56:41;16.20;1.00
506;DHT22;551;48.524;9.056;2023-05-10T17:59:06;16.20;1.00
506;DHT22;551;48.524;9.056;2023-05-10T18:01:32;16.10;1.00
506;DHT22;551;48.524;9.056;2023-05-10T18:03:57;16.10;1.00
506;DHT22;551;48.524;9.056;2023-05-10T18:06:23;16.10;1.00
506;DHT22;551;48.524;9.056;2023-05-10T18:08:48;16.10;1.00
506;DHT22;551;48.524;9.056;2023-05-10T18:11:14;16.10;1.00
506;DHT22;551;48.524;9.056;2023-05-10T18:13:39;16.00;1.00
506;DHT22;551;48.524;9.056;2023-05-10T18:16:05;16.00;1.00
506;DHT22;551;48.524;9.056;2023-05-10T18:18:33;16.00;1.00
506;DHT22;551;48.524;9.056;2023-05-10T18:20:59;15.90;1.00
506;DHT22;551;48.524;9.056;2023-05-10T18:23:25;15.90;1.00
506;DHT22;551;48.524;9.056;2023-05-10T18:25:51;15.90;1.00
506;DHT22;551;48.524;9.056;2023-05-10T18:28:17;15.80;1.00
506;DHT22;551;48.524;9.056;2023-05-10T18:30:42;15.80;1.00
506;DHT22;551;48.524;9.056;2023-05-10T18:33:08;15.70;1.00
506;DHT22;551;48.524;9.056;2023-05-10T18:35:37;15.50;1.00
506;DHT22;551;48.524;9.056;2023-05-10T18:38:04;15.60;1.00
506;DHT22;551;48.524;9.056;2023-05-10T18:40:30;15.60;1.00
506;DHT22;551;48.524;9.056;2023-05-10T18:42:55;15.60;1.00
506;DHT22;551;48.524;9.056;2023-05-10T18:45:21;15.60;1.00
506;DHT22;551;48.524;9.056;2023-05-10T18:47:47;15.60;1.00
506;DHT22;551;48.524;9.056;2023-05-10T18:50:12;15.50;1.00
506;DHT22;551;48.524;9.056;2023-05-10T18:52:38;15.50;1.00
506;DHT22;551;48.524;9.056;2023-05-10T18:55:04;15.40;1.00
506;DHT22;551;48.524;9.056;2023-05-10T18:57:30;15.40;1.00
506;DHT22;551;48.524;9.056;2023-05-10T18:59:56;15.30;1.00
506;DHT22;551;48.524;9.056;2023-05-10T19:02:21;15.20;1.00